Time;durP1;ratioP1;P1;durP2;ratioP2;P2;SDS_P1;SDS_P2;PMS_P1;PMS_P2;Temp;Humidity;BMP_temperature;BMP_pressure;BME280_temperature;BME280_humidity;BME280_pressure;Samples;Min_cycle;Max_cycle;Signal;HPM_P1;HPM_P2
2024/03/04 00:01:32;;;;;;;9.57;3.60;;;;;;;1.56;100.00;99722.59;5039859;28;20473;-74
2024/03/04 00:03:58;;;;;;;8.73;3.33;;;;;;;1.57;100.00;99719.00;5038972;28;20047;-73
2024/03/04 00:06:24;;;;;;;6.30;3.33;;;;;;;1.59;100.00;99723.16;5039758;28;20469;-73
2024/03/04 00:08:49;;;;;;;4.65;2.83;;;;;;;1.66;100.00;99716.28;5039639;28;20039;-73
2024/03/04 00:11:15;;;;;;;4.07;2.67;;;;;;;1.67;100.00;99714.50;5039666;28;20032;-73
2024/03/04 00:13:40;;;;;;;11.23;3.25;;;;;;;1.69;100.00;99712.53;5039566;28;20044;-74
2024/03/04 00:16:06;;;;;;;5.55;3.03;;;;;;;1.73;100.00;99709.44;5039601;28;20097;-74
2024/03/04 00:18:32;;;;;;;9.02;3.35;;;;;;;1.76;100.00;99703.84;5056119;28;20032;-74
2024/03/04 00:20:58;;;;;;;5.85;3.33;;;;;;;1.80;100.00;99706.19;5039419;28;20074;-73
2024/03/04 00:23:24;;;;;;;9.98;3.97;;;;;;;1.78;100.00;99703.72;5055998;28;20044;-73
2024/03/04 00:25:51;;;;;;;9.88;3.50;;;;;;;1.75;100.00;99709.31;5039895;28;20046;-74
2024/03/04 00:28:17;;;;;;;9.77;4.93;;;;;;;1.72;100.00;99697.19;5055626;28;20107;-74
2024/03/04 00:30:43;;;;;;;9.73;4.63;;;;;;;1.82;100.00;99698.94;5056176;28;20032;-74
2024/03/04 00:33:09;;;;;;;7.93;3.60;;;;;;;1.95;100.00;99704.75;5055908;28;20417;-73
2024/03/04 00:35:36;;;;;;;7.47;3.78;;;;;;;2.01;100.00;99696.22;5055737;28;20119;-73
2024/03/04 00:38:02;;;;;;;10.57;4.28;;;;;;;2.08;100.00;99701.78;5055617;28;20118;-73
2024/03/04 00:40:28;;;;;;;5.55;2.95;;;;;;;2.16;100.00;99700.03;5055936;28;20078;-73
2024/03/04 00:42:54;;;;;;;9.80;2.83;;;;;;;2.26;100.00;99704.47;5022945;28;20028;-74
2024/03/04 00:45:20;;;;;;;14.52;3.90;;;;;;;2.32;100.00;99703.88;5022947;28;20040;-73
2024/03/04 00:47:46;;;;;;;9.27;4.63;;;;;;;2.35;100.00;99703.56;5055419;28;20104;-74
2024/03/04 00:50:12;;;;;;;9.57;3.53;;;;;;;2.41;100.00;99698.53;5072082;28;20025;-74
2024/03/04 00:52:38;;;;;;;5.80;2.45;;;;;;;2.56;100.00;99704.13;5072313;28;20089;-73
2024/03/04 00:55:08;;;;;;;5.30;2.75;;;;;;;2.67;100.00;99700.41;5038842;28;20035;-73
2024/03/04 00:57:35;;;;;;;8.95;4.10;;;;;;;2.72;100.00;99699.97;5072305;28;20024;-73
2024/03/04 01:00:01;;;;;;;6.40;3.72;;;;;;;2.74;100.00;99698.00;5055744;28;20036;-73
2024/03/04 01:02:27;;;;;;;13.95;3.65;;;;;;;2.75;100.00;99699.66;5039226;28;20455;-73
2024/03/04 01:04:54;;;;;;;10.13;3.67;;;;;;;2.74;100.00;99698.84;5056228;28;20071;-73
2024/03/04 01:07:20;;;;;;;13.00;4.47;;;;;;;2.76;100.00;99698.69;5039208;28;20458;-73
2024/03/04 01:09:46;;;;;;;9.13;3.17;;;;;;;2.77;100.00;99695.88;5039024;28;20032;-73
2024/03/04 01:12:11;;;;;;;5.57;3.60;;;;;;;2.77;100.00;99687.09;5038822;28;20040;-74
2024/03/04 01:14:40;;;;;;;9.50;4.85;;;;;;;2.77;100.00;99682.59;5073570;28;20055;-74
2024/03/04 01:17:12;;;;;;;8.85;3.83;;;;;;;2.78;100.00;99683.44;5043570;28;20366;-73
2024/03/04 01:19:45;;;;;;;8.48;3.50;;;;;;;2.75;100.00;99671.31;5060732;28;20131;-73
2024/03/04 01:22:17;;;;;;;7.45;3.45;;;;;;;2.79;100.00;99677.16;5043617;28;20119;-73
2024/03/04 01:24:44;;;;;;;7.28;3.28;;;;;;;2.77;100.00;99676.47;5059007;28;20089;-74
2024/03/04 01:27:11;;;;;;;7.13;2.58;;;;;;;2.77;100.00;99671.16;5042910;28;20094;-73
2024/03/04 01:29:37;;;;;;;11.98;4.03;;;;;;;2.77;100.00;99671.16;5026344;28;20044;-73
2024/03/04 01:32:04;;;;;;;11.48;4.22;;;;;;;2.75;100.00;99663.38;5042729;28;20112;-73
2024/03/04 01:34:29;;;;;;;7.38;2.83;;;;;;;2.77;100.00;99661.38;5059054;28;20024;-73
2024/03/04 01:36:56;;;;;;;7.57;3.25;;;;;;;2.80;100.00;99649.63;5042643;28;20028;-73
2024/03/04 01:39:21;;;;;;;9.05;3.50;;;;;;;2.83;100.00;99651.94;5058628;28;20446;-73
2024/03/04 01:41:47;;;;;;;8.75;3.80;;;;;;;2.81;100.00;99651.28;5026609;28;20059;-73
2024/03/04 01:44:13;;;;;;;8.35;4.03;;;;;;;2.77;100.00;99655.22;5042467;28;20466;-73
2024/03/04 01:46:41;;;;;;;9.75;3.88;;;;;;;2.74;100.00;99651.06;5042357;28;20063;-73
2024/03/04 01:49:07;;;;;;;12.52;3.95;;;;;;;2.69;100.00;99641.88;5041946;28;20089;-73
2024/03/04 01:51:33;;;;;;;10.63;4.05;;;;;;;2.66;100.00;99645.69;5058785;28;20448;-73
2024/03/04 01:53:59;;;;;;;7.15;3.60;;;;;;;2.60;100.00;99649.78;5075211;28;20031;-74
2024/03/04 01:56:26;;;;;;;8.35;3.40;;;;;;;2.55;100.00;99644.09;5025767;28;20036;-73
2024/03/04 01:58:52;;;;;;;9.30;4.72;;;;;;;2.48;100.00;99640.38;5058326;28;20473;-74
2024/03/04 02:01:18;;;;;;;14.27;4.55;;;;;;;2.41;100.00;99636.66;5058217;28;20115;-73
2024/03/04 02:03:44;;;;;;;9.05;3.53;;;;;;;2.34;100.00;99631.13;5025699;28;20127;-73
2024/03/04 02:06:10;;;;;;;9.60;5.65;;;;;;;2.27;100.00;99626.56;5042102;28;20036;-74
2024/03/04 02:08:36;;;;;;;7.45;4.22;;;;;;;2.24;100.00;99618.91;5042009;28;20409;-73
2024/03/04 02:11:03;;;;;;;5.40;3.70;;;;;;;2.12;100.00;99619.13;5025508;28;20039;-74
2024/03/04 02:13:32;;;;;;;7.47;3.38;;;;;;;2.01;100.00;99615.84;5041990;28;20017;-73
2024/03/04 02:15:57;;;;;;;7.50;3.55;;;;;;;1.93;100.00;99616.56;5041974;28;20123;-74
2024/03/04 02:18:23;;;;;;;7.80;3.65;;;;;;;1.86;100.00;99607.56;5041823;28;20439;-74
2024/03/04 02:20:53;;;;;;;9.20;4.07;;;;;;;1.76;100.00;99608.44;5042240;28;20028;-73
2024/03/04 02:23:19;;;;;;;7.13;4.22;;;;;;;1.82;100.00;99607.00;5057855;28;20038;-73
2024/03/04 02:25:56;;;;;;;5.80;3.70;;;;;;;2.01;100.00;99595.47;5041355;28;20040;-73
2024/03/04 02:28:25;;;;;;;8.05;3.38;;;;;;;2.16;100.00;99604.56;5058689;28;20446;-74
2024/03/04 02:30:51;;;;;;;11.63;2.92;;;;;;;2.30;100.00;99610.34;5041844;28;20037;-73
2024/03/04 02:33:21;;;;;;;7.30;3.42;;;;;;;2.51;100.00;99602.91;5057668;28;20032;-73
2024/03/04 02:35:48;;;;;;;6.28;3.33;;;;;;;2.68;100.00;99598.59;5041717;28;20093;-73
2024/03/04 02:38:14;;;;;;;13.40;3.53;;;;;;;2.91;100.00;99595.44;5041192;28;20116;-73
2024/03/04 02:40:40;;;;;;;6.72;3.47;;;;;;;3.02;100.00;99600.50;5025022;28;20516;-74
2024/03/04 02:43:06;;;;;;;6.45;3.17;;;;;;;3.11;100.00;99594.25;5041536;28;20115;-73
2024/03/04 02:45:34;;;;;;;7.78;3.72;;;;;;;3.17;100.00;99593.63;5058342;28;20032;-73
2024/03/04 02:48:00;;;;;;;8.63;4.05;;;;;;;3.21;100.00;99591.50;5041426;28;20455;-73
2024/03/04 02:50:26;;;;;;;11.18;4.00;;;;;;;3.15;100.00;99590.31;5041267;28;20043;-73
2024/03/04 02:52:51;;;;;;;10.63;3.70;;;;;;;3.02;100.00;99585.41;5041259;28;20032;-73
2024/03/04 02:55:17;;;;;;;8.40;2.75;;;;;;;2.98;100.00;99586.69;5040913;28;20115;-73
2024/03/04 02:57:43;;;;;;;5.03;2.97;;;;;;;3.02;100.00;99574.78;5057544;28;20344;-74
2024/03/04 03:00:09;;;;;;;10.07;3.58;;;;;;;3.13;100.00;99562.25;5041150;28;20056;-73
2024/03/04 03:02:35;;;;;;;8.50;4.15;;;;;;;3.20;100.00;99566.78;5057174;28;20375;-73
2024/03/04 03:05:00;;;;;;;13.00;3.55;;;;;;;3.33;100.00;99563.66;5041041;28;20032;-73
2024/03/04 03:07:26;;;;;;;9.90;3.58;;;;;;;3.48;100.00;99566.56;5057355;28;20036;-73
2024/03/04 03:09:53;;;;;;;9.32;3.22;;;;;;;3.58;100.00;99558.47;5040667;28;20408;-73
2024/03/04 03:12:19;;;;;;;5.53;2.85;;;;;;;3.54;100.00;99560.59;5041026;28;20153;-73
2024/03/04 03:14:45;;;;;;;8.65;3.00;;;;;;;3.48;100.00;99559.41;5040634;28;20111;-74
2024/03/04 03:17:10;;;;;;;10.10;2.33;;;;;;;3.54;100.00;99542.00;5040713;28;20355;-73
2024/03/04 03:19:38;;;;;;;13.82;3.50;;;;;;;3.63;100.00;99546.34;5041613;28;20078;-74
2024/03/04 03:22:04;;;;;;;4.40;1.88;;;;;;;3.70;100.00;99539.38;5057618;28;20051;-73
2024/03/04 03:24:30;;;;;;;6.40;2.33;;;;;;;3.73;100.00;99543.53;5040600;28;20459;-73
2024/03/04 03:26:55;;;;;;;9.65;2.80;;;;;;;3.73;100.00;99536.44;5073600;28;20119;-73
2024/03/04 03:29:21;;;;;;;6.00;1.85;;;;;;;3.79;100.00;99526.13;5040627;28;20481;-73
2024/03/04 03:31:48;;;;;;;4.78;1.77;;;;;;;3.87;100.00;99531.47;5057496;28;20029;-73
2024/03/04 03:34:13;;;;;;;3.78;2.10;;;;;;;3.93;100.00;99512.19;5040236;28;20047;-73
2024/03/04 03:36:40;;;;;;;2.75;1.83;;;;;;;3.94;100.00;99516.50;5040432;28;20024;-73
2024/03/04 03:39:09;;;;;;;4.97;1.83;;;;;;;3.99;100.00;99513.38;5056584;28;20074;-73
2024/03/04 03:41:39;;;;;;;4.85;1.55;;;;;;;3.99;100.00;99516.03;5073420;28;20028;-73
2024/03/04 03:44:04;;;;;;;1.63;1.02;;;;;;;4.02;100.00;99519.19;5040240;28;20031;-73
2024/03/04 03:46:30;;;;;;;2.70;1.35;;;;;;;4.08;100.00;99517.72;5040127;28;20040;-73
2024/03/04 03:48:56;;;;;;;4.50;1.63;;;;;;;4.10;100.00;99508.59;5040173;28;20127;-73
2024/03/04 03:51:22;;;;;;;3.55;1.33;;;;;;;4.18;100.00;99507.72;5039759;28;20070;-73
2024/03/04 03:53:48;;;;;;;4.05;1.52;;;;;;;4.20;100.00;99500.41;5040258;28;20025;-73
2024/03/04 03:56:13;;;;;;;2.45;1.40;;;;;;;4.18;100.00;99492.63;5040059;28;20096;-73
2024/03/04 03:58:40;;;;;;;2.95;1.40;;;;;;;4.19;100.00;99496.09;5039995;28;20037;-74
2024/03/04 04:01:05;;;;;;;4.20;1.65;;;;;;;4.20;100.00;99487.13;5024141;28;20028;-73
2024/03/04 04:03:33;;;;;;;4.28;1.45;;;;;;;4.17;100.00;99482.13;5039964;28;20375;-73
2024/03/04 04:06:00;;;;;;;2.92;1.38;;;;;;;4.16;100.00;99477.81;5072991;28;20111;-73
2024/03/04 04:08:27;;;;;;;4.50;1.60;;;;;;;4.16;100.00;99475.16;5039850;28;20033;-73
2024/03/04 04:10:54;;;;;;;4.30;1.65;;;;;;;4.17;100.00;99468.84;5056210;28;20029;-73
2024/03/04 04:13:23;;;;;;;5.10;1.23;;;;;;;4.16;100.00;99467.19;5056108;28;20098;-73
2024/03/04 04:15:51;;;;;;;2.38;1.20;;;;;;;4.11;100.00;99458.88;5056284;28;20032;-74
2024/03/04 04:18:17;;;;;;;3.22;1.40;;;;;;;4.11;100.00;99454.38;5056213;28;20031;-73
2024/03/04 04:20:44;;;;;;;2.25;1.00;;;;;;;4.09;100.00;99444.91;5039500;28;20036;-73
2024/03/04 04:23:11;;;;;;;6.20;1.50;;;;;;;4.15;100.00;99438.91;5039873;28;20041;-73
2024/03/04 04:25:36;;;;;;;3.30;1.30;;;;;;;4.17;100.00;99440.41;5039646;28;20032;-73
2024/03/04 04:28:03;;;;;;;2.15;1.10;;;;;;;4.16;100.00;99436.09;5072588;28;20389;-73
2024/03/04 04:30:28;;;;;;;1.13;0.70;;;;;;;4.17;100.00;99431.59;5072588;28;20032;-74
2024/03/04 04:32:54;;;;;;;2.33;1.02;;;;;;;4.13;100.00;99424.94;5039516;28;20059;-73
2024/03/04 04:35:20;;;;;;;3.28;1.00;;;;;;;4.11;100.00;99416.31;5039175;28;20024;-73
2024/03/04 04:37:46;;;;;;;1.95;0.93;;;;;;;4.11;100.00;99411.81;5039498;28;20031;-74
2024/03/04 04:40:19;;;;;;;1.80;0.85;;;;;;;4.08;100.00;99408.66;5056237;28;20033;-73
2024/03/04 04:42:45;;;;;;;1.50;0.70;;;;;;;4.04;100.00;99399.34;5039413;28;20028;-74
2024/03/04 04:45:10;;;;;;;0.73;0.70;;;;;;;4.09;100.00;99400.50;5039354;28;20115;-74
2024/03/04 04:47:36;;;;;;;1.73;0.88;;;;;;;4.11;100.00;99395.84;5055947;28;20028;-73
2024/03/04 04:50:03;;;;;;;2.28;1.70;;;;;;;4.11;100.00;99395.03;5038792;28;20071;-74
2024/03/04 04:52:29;;;;;;;2.90;0.80;;;;;;;4.04;100.00;99392.19;5055917;28;20054;-73
2024/03/04 04:54:54;;;;;;;3.78;1.10;;;;;;;3.97;100.00;99389.38;5039008;28;20033;-73
2024/03/04 04:57:20;;;;;;;2.67;1.20;;;;;;;3.89;100.00;99375.22;5072419;28;20032;-74
2024/03/04 04:59:46;;;;;;;2.30;1.08;;;;;;;3.87;100.00;99375.41;5039532;28;20135;-74
2024/03/04 05:02:11;;;;;;;2.03;1.33;;;;;;;3.88;100.00;99379.72;5039663;28;20381;-73
2024/03/04 05:04:37;;;;;;;5.18;2.03;;;;;;;3.86;100.00;99376.41;5038995;28;20343;-73
2024/03/04 05:07:04;;;;;;;2.17;1.48;;;;;;;3.88;100.00;99370.91;5038972;28;20054;-74
2024/03/04 05:09:30;;;;;;;4.22;1.58;;;;;;;3.88;100.00;99368.25;5039384;28;20072;-73
2024/03/04 05:11:55;;;;;;;5.85;1.38;;;;;;;3.87;100.00;99367.44;5039089;28;20071;-74
2024/03/04 05:14:21;;;;;;;2.78;1.10;;;;;;;3.91;100.00;99371.41;5039014;28;20056;-73
2024/03/04 05:16:47;;;;;;;4.68;1.70;;;;;;;3.93;100.00;99369.41;5071892;28;20028;-73
2024/03/04 05:19:13;;;;;;;2.50;1.70;;;;;;;3.93;100.00;99356.13;5038801;28;20449;-74
2024/03/04 05:21:39;;;;;;;3.22;1.30;;;;;;;3.91;100.00;99351.97;5038723;28;20063;-73
2024/03/04 05:24:05;;;;;;;2.47;1.30;;;;;;;3.91;100.00;99360.78;5039062;28;20090;-73
2024/03/04 05:26:30;;;;;;;4.15;1.95;;;;;;;3.92;100.00;99346.50;5054981;28;20035;-73
2024/03/04 05:28:57;;;;;;;3.13;1.42;;;;;;;3.96;100.00;99344.31;5055601;28;20020;-73
2024/03/04 05:31:23;;;;;;;4.00;1.95;;;;;;;3.95;100.00;99332.84;5055081;28;20024;-73
2024/03/04 05:33:49;;;;;;;5.28;1.30;;;;;;;3.95;100.00;99324.88;5038889;28;20032;-73
2024/03/04 05:36:14;;;;;;;4.00;1.90;;;;;;;4.04;100.00;99319.53;5038867;28;20028;-73
2024/03/04 05:38:40;;;;;;;4.90;1.63;;;;;;;4.12;100.00;99316.88;5038865;28;20125;-73
2024/03/04 05:41:06;;;;;;;1.85;1.00;;;;;;;4.17;100.00;99319.84;5054908;28;20039;-73
2024/03/04 05:43:31;;;;;;;5.80;1.30;;;;;;;4.15;100.00;99317.38;5038865;28;20039;-74
2024/03/04 05:45:57;;;;;;;1.17;1.00;;;;;;;4.15;100.00;99319.19;5038897;28;20037;-73
2024/03/04 05:48:23;;;;;;;4.45;1.60;;;;;;;4.15;100.00;99313.88;5038708;28;20047;-74
2024/03/04 05:50:48;;;;;;;4.80;1.95;;;;;;;4.12;100.00;99312.38;5038795;28;20028;-74
2024/03/04 05:53:15;;;;;;;2.35;1.30;;;;;;;4.11;100.00;99307.25;5038734;28;20132;-74
2024/03/04 05:55:42;;;;;;;4.38;1.70;;;;;;;4.11;100.00;99299.25;5038725;28;20048;-73
2024/03/04 05:58:09;;;;;;;3.08;1.42;;;;;;;4.07;100.00;99297.94;5038758;28;20033;-74
2024/03/04 06:00:35;;;;;;;3.42;1.20;;;;;;;4.03;100.00;99294.78;5038959;28;20455;-73
2024/03/04 06:03:01;;;;;;;5.28;1.55;;;;;;;3.99;100.00;99290.78;5041705;28;20031;-73
2024/03/04 06:05:27;;;;;;;3.83;1.20;;;;;;;4.00;100.00;99291.66;5042089;28;20078;-74
2024/03/04 06:07:57;;;;;;;2.53;1.05;;;;;;;4.03;100.00;99291.31;5041859;28;20051;-73
2024/03/04 06:10:24;;;;;;;2.20;0.95;;;;;;;4.08;100.00;99287.13;5059449;28;20458;-73
2024/03/04 06:12:50;;;;;;;2.90;1.33;;;;;;;4.15;100.00;99282.78;5025577;28;20031;-74
2024/03/04 06:15:15;;;;;;;2.22;1.00;;;;;;;4.22;100.00;99285.59;5041637;28;20111;-73
2024/03/04 06:17:41;;;;;;;1.27;0.70;;;;;;;4.23;100.00;99273.09;5041929;28;20028;-73
2024/03/04 06:20:09;;;;;;;3.13;1.13;;;;;;;4.25;100.00;99279.09;5041789;28;20070;-73
2024/03/04 06:22:36;;;;;;;4.38;1.00;;;;;;;4.29;100.00;99275.94;5042095;28;20052;-73
2024/03/04 06:25:02;;;;;;;3.20;1.00;;;;;;;4.33;100.00;99258.59;5075108;28;20032;-73
2024/03/04 06:27:28;;;;;;;3.83;1.00;;;;;;;4.31;100.00;99273.09;5041650;28;20047;-73
2024/03/04 06:29:54;;;;;;;6.63;1.10;;;;;;;4.35;100.00;99264.59;5041697;28;20367;-74
2024/03/04 06:32:20;;;;;;;2.30;1.20;;;;;;;4.37;100.00;99257.28;5041682;28;20039;-74
2024/03/04 06:34:46;;;;;;;6.45;1.10;;;;;;;4.43;100.00;99247.75;5041306;28;20024;-73
2024/03/04 06:37:14;;;;;;;7.35;1.23;;;;;;;4.47;100.00;99245.56;5041527;28;20443;-74
2024/03/04 06:39:39;;;;;;;4.30;1.20;;;;;;;4.47;100.00;99254.38;5041498;28;20032;-73
2024/03/04 06:42:05;;;;;;;2.45;0.95;;;;;;;4.46;100.00;99238.59;5041244;28;20089;-73
2024/03/04 06:44:31;;;;;;;2.28;0.80;;;;;;;4.45;100.00;99242.28;5041369;28;20024;-73
2024/03/04 06:46:57;;;;;;;2.08;0.95;;;;;;;4.43;100.00;99239.78;5041085;28;20020;-73
2024/03/04 06:49:22;;;;;;;2.88;1.25;;;;;;;4.43;100.00;99229.13;5041239;28;20119;-73
2024/03/04 06:51:48;;;;;;;2.78;1.08;;;;;;;4.46;100.00;99230.63;5041194;28;20044;-74
2024/03/04 06:54:15;;;;;;;1.48;1.05;;;;;;;4.48;100.00;99223.28;5041989;28;20157;-74
2024/03/04 06:56:41;;;;;;;3.17;1.05;;;;;;;4.56;100.00;99220.59;5058055;28;20097;-73
2024/03/04 06:59:07;;;;;;;3.08;1.23;;;;;;;4.64;100.00;99231.19;5040856;28;20462;-73
2024/03/04 07:01:32;;;;;;;4.40;1.10;;;;;;;4.64;100.00;99225.88;5041109;28;20048;-73
2024/03/04 07:03:58;;;;;;;1.60;0.80;;;;;;;4.64;100.00;99215.22;5041090;28;20034;-73
2024/03/04 07:06:25;;;;;;;3.30;1.17;;;;;;;4.67;100.00;99208.72;5041035;28;20115;-73
2024/03/04 07:08:51;;;;;;;7.63;1.10;;;;;;;4.70;100.00;99208.34;5057510;28;20111;-73
2024/03/04 07:11:18;;;;;;;1.55;0.68;;;;;;;4.71;100.00;99205.53;5074001;28;20036;-74
2024/03/04 07:13:44;;;;;;;4.65;1.00;;;;;;;4.75;100.00;99209.47;5040398;28;20031;-74
2024/03/04 07:16:15;;;;;;;3.85;1.05;;;;;;;4.77;100.00;99199.50;5040761;28;20020;-74
2024/03/04 07:18:43;;;;;;;4.68;1.45;;;;;;;4.79;100.00;99197.47;5024845;28;20029;-74
2024/03/04 07:21:14;;;;;;;8.27;1.15;;;;;;;4.86;100.00;99208.25;5040698;28;20039;-73
2024/03/04 07:23:40;;;;;;;4.55;1.00;;;;;;;4.91;100.00;99205.06;5057294;28;20034;-73
2024/03/04 07:26:06;;;;;;;3.22;0.95;;;;;;;4.88;100.00;99195.59;5040505;28;20111;-73
2024/03/04 07:28:32;;;;;;;2.97;0.80;;;;;;;4.85;100.00;99194.09;5040277;28;20028;-73
2024/03/04 07:30:58;;;;;;;3.13;1.42;;;;;;;4.89;100.00;99188.41;5040584;28;20032;-74
2024/03/04 07:33:24;;;;;;;1.33;0.70;;;;;;;4.91;100.00;99194.41;5073719;28;20043;-74
2024/03/04 07:35:50;;;;;;;2.55;0.90;;;;;;;4.88;100.00;99184.94;5040493;28;20036;-73
2024/03/04 07:38:15;;;;;;;3.35;1.15;;;;;;;4.88;100.00;99182.28;5040447;28;20063;-73
2024/03/04 07:40:41;;;;;;;3.28;0.95;;;;;;;4.96;100.00;99181.38;5040402;28;20468;-73
2024/03/04 07:43:07;;;;;;;1.95;0.82;;;;;;;5.03;100.00;99179.66;5040258;28;20036;-73
2024/03/04 07:45:32;;;;;;;3.80;1.35;;;;;;;5.24;100.00;99173.66;5040235;28;20028;-73
2024/03/04 07:47:58;;;;;;;1.05;0.70;;;;;;;5.40;100.00;99162.84;5040275;28;20028;-74
2024/03/04 07:50:24;;;;;;;4.97;1.48;;;;;;;5.53;100.00;99161.38;5040148;28;20363;-73
2024/03/04 07:52:50;;;;;;;3.35;0.98;;;;;;;5.60;100.00;99152.47;5040136;28;20122;-73
2024/03/04 07:55:16;;;;;;;5.28;1.20;;;;;;;5.69;100.00;99153.22;5039766;28;20021;-73
2024/03/04 07:57:43;;;;;;;2.70;0.90;;;;;;;5.82;100.00;99144.56;5073302;28;20443;-74
2024/03/04 08:00:14;;;;;;;4.38;1.00;;;;;;;5.87;100.00;99150.16;5072928;28;20455;-73
2024/03/04 08:02:43;;;;;;;5.97;1.25;;;;;;;5.92;100.00;99132.59;5057561;28;20066;-74
2024/03/04 08:05:09;;;;;;;4.50;1.00;;;;;;;5.97;100.00;99125.91;5039906;28;20031;-74
2024/03/04 08:07:38;;;;;;;5.95;1.30;;;;;;;6.06;100.00;99130.13;5056431;28;20485;-74
2024/03/04 08:10:08;;;;;;;7.45;1.48;;;;;;;6.19;100.00;99108.94;5039942;28;20504;-73
2024/03/04 08:12:37;;;;;;;2.50;0.90;;;;;;;6.31;100.00;99112.78;5073052;28;20162;-73
2024/03/04 08:15:04;;;;;;;5.70;1.25;;;;;;;6.41;100.00;99104.47;5023647;28;20123;-74
2024/03/04 08:17:32;;;;;;;3.53;1.08;;;;;;;6.48;100.00;99097.31;5023339;28;20039;-74
2024/03/04 08:20:07;;;;;;;6.10;0.90;;;;;;;6.52;100.00;99103.13;5039888;28;20040;-74
2024/03/04 08:22:32;;;;;;;1.80;0.80;;;;;;;6.63;100.00;99094.59;5039982;28;20550;-74
2024/03/04 08:24:58;;;;;;;8.68;1.48;;;;;;;6.77;100.00;99079.53;5038784;28;20036;-74
2024/03/04 08:27:24;;;;;;;1.60;1.02;;;;;;;6.87;100.00;99082.69;5039611;28;20123;-74
2024/03/04 08:29:50;;;;;;;6.47;1.42;;;;;;;6.83;100.00;99073.44;5039530;28;20067;-74
2024/03/04 08:32:15;;;;;;;8.63;1.40;;;;;;;6.82;100.00;99071.75;5039520;28;20036;-74
2024/03/04 08:34:41;;;;;;;5.22;0.75;;;;;;;6.71;100.00;99062.44;5039192;28;20073;-74
2024/03/04 08:37:07;;;;;;;3.90;1.00;;;;;;;6.59;100.00;99066.66;5056300;28;20031;-74
2024/03/04 08:39:32;;;;;;;5.93;1.08;;;;;;;6.55;100.00;99071.53;5039569;28;20044;-74
2024/03/04 08:41:58;;;;;;;5.80;1.45;;;;;;;6.56;100.00;99070.53;5039338;28;20113;-73
2024/03/04 08:44:24;;;;;;;2.75;0.90;;;;;;;6.53;100.00;99067.41;5039230;28;20040;-73
2024/03/04 08:46:50;;;;;;;2.10;0.93;;;;;;;6.55;100.00;99060.03;5055537;28;20154;-74
2024/03/04 08:49:16;;;;;;;4.32;1.75;;;;;;;6.61;100.00;99059.25;5039338;28;20362;-74
2024/03/04 08:51:42;;;;;;;4.15;1.40;;;;;;;6.72;100.00;99049.88;5039326;28;20028;-73
2024/03/04 08:54:08;;;;;;;2.53;0.85;;;;;;;6.85;100.00;99047.31;5039168;28;20024;-73
2024/03/04 08:56:34;;;;;;;2.22;1.27;;;;;;;6.99;100.00;99041.06;5039317;28;20042;-73
2024/03/04 08:58:59;;;;;;;2.47;1.00;;;;;;;7.13;100.00;99039.31;5039631;28;20119;-75
2024/03/04 09:01:26;;;;;;;8.30;1.10;;;;;;;7.17;100.00;99037.06;5040364;28;20115;-72
2024/03/04 09:03:52;;;;;;;6.35;1.30;;;;;;;7.18;100.00;99020.84;5039168;28;20127;-72
2024/03/04 09:06:19;;;;;;;3.58;1.55;;;;;;;7.20;100.00;99034.03;5056445;28;20089;-72
2024/03/04 09:08:46;;;;;;;1.90;1.08;;;;;;;7.21;100.00;99027.66;5039018;28;20024;-72
2024/03/04 09:11:12;;;;;;;2.97;1.05;;;;;;;7.19;100.00;99024.34;5072196;28;20463;-72
2024/03/04 09:13:42;;;;;;;3.03;1.10;;;;;;;7.19;100.00;99030.50;5039029;28;20067;-72
2024/03/04 09:16:07;;;;;;;13.88;1.60;;;;;;;7.31;100.00;99006.72;5055343;28;20032;-72
2024/03/04 09:18:34;;;;;;;4.75;1.10;;;;;;;7.51;100.00;99020.19;5038985;28;20094;-73
2024/03/04 09:21:00;;;;;;;3.83;0.80;;;;;;;7.97;100.00;99000.00;5038750;28;20459;-72
2024/03/04 09:23:26;;;;;;;2.55;1.15;;;;;;;8.67;100.00;98987.13;5038970;28;20029;-72
2024/03/04 09:25:52;;;;;;;3.70;0.90;;;;;;;9.69;100.00;98978.41;5038976;28;20038;-72
2024/03/04 09:28:19;;;;;;;4.45;1.30;;;;;;;10.38;100.00;98978.66;5055988;28;20037;-72
2024/03/04 09:30:45;;;;;;;1.15;0.75;;;;;;;11.28;100.00;98962.09;5055695;28;20090;-72
2024/03/04 09:33:14;;;;;;;4.32;1.20;;;;;;;9.97;97.59;98955.75;5038877;28;20029;-72
2024/03/04 09:35:40;;;;;;;2.80;1.23;;;;;;;10.01;98.40;98959.66;5039913;28;20082;-72
2024/03/04 09:38:08;;;;;;;1.27;0.90;;;;;;;10.15;99.85;98955.00;5058987;28;20470;-72
2024/03/04 09:40:37;;;;;;;3.92;1.40;;;;;;;9.57;100.00;98941.72;5042909;28;20369;-73
2024/03/04 09:43:04;;;;;;;6.18;0.90;;;;;;;9.30;100.00;98935.66;5042947;28;20071;-75
2024/03/04 09:45:30;;;;;;;4.57;0.80;;;;;;;8.91;100.00;98927.50;5042577;28;20024;-74
2024/03/04 09:47:58;;;;;;;3.45;1.00;;;;;;;8.70;100.00;98917.03;5041974;28;20029;-74
2024/03/04 09:50:24;;;;;;;1.58;0.70;;;;;;;8.70;100.00;98914.34;5058706;28;20020;-74
2024/03/04 09:52:51;;;;;;;4.00;1.00;;;;;;;8.76;100.00;98914.38;5042939;28;20102;-72
2024/03/04 09:55:17;;;;;;;1.85;0.80;;;;;;;8.93;100.00;98914.72;5041959;28;20024;-73
2024/03/04 09:57:45;;;;;;;2.13;0.75;;;;;;;9.16;100.00;98918.78;5075441;28;20025;-74
2024/03/04 10:00:14;;;;;;;0.75;0.75;;;;;;;9.30;100.00;98906.16;5058921;28;20059;-73
2024/03/04 10:02:43;;;;;;;6.43;0.85;;;;;;;9.12;100.00;98918.38;5042552;28;20459;-74
2024/03/04 10:05:10;;;;;;;2.25;0.80;;;;;;;8.95;100.00;98901.13;5058280;28;20035;-74
2024/03/04 10:07:36;;;;;;;2.33;0.80;;;;;;;8.77;100.00;98905.28;5058456;28;20065;-72
2024/03/04 10:10:08;;;;;;;1.30;0.60;;;;;;;8.68;100.00;98895.81;5058591;28;20040;-74
2024/03/04 10:12:33;;;;;;;1.95;0.77;;;;;;;8.65;100.00;98890.88;5058924;28;20039;-74
2024/03/04 10:14:59;;;;;;;2.10;0.60;;;;;;;8.65;100.00;98877.47;5043327;28;20093;-75
2024/03/04 10:17:26;;;;;;;1.33;0.80;;;;;;;8.88;100.00;98884.22;5058610;28;20123;-74
2024/03/04 10:20:03;;;;;;;1.98;1.00;;;;;;;9.23;100.00;98882.03;5058493;28;20033;-74
2024/03/04 10:22:39;;;;;;;1.77;0.85;;;;;;;8.95;100.00;98880.50;5075436;28;20039;-74
2024/03/04 10:25:08;;;;;;;1.15;0.73;;;;;;;8.73;100.00;98882.63;5074952;28;20020;-74
2024/03/04 10:27:52;;;;;;;0.95;0.85;;;;;;;8.82;100.00;98882.41;5041950;28;20131;-74
2024/03/04 10:30:21;;;;;;;0.88;0.70;;;;;;;9.02;100.00;98877.78;5042240;28;20450;-74
2024/03/04 10:32:51;;;;;;;1.30;0.77;;;;;;;9.10;100.00;98866.81;5041691;28;20451;-74
2024/03/04 10:35:17;;;;;;;3.22;1.00;;;;;;;9.18;100.00;98873.78;5041354;28;20081;-74
2024/03/04 10:37:43;;;;;;;1.83;0.70;;;;;;;9.22;100.00;98865.13;5025084;28;20097;-74
2024/03/04 10:40:10;;;;;;;0.82;0.60;;;;;;;8.73;100.00;98869.22;5041957;28;20085;-74
2024/03/04 10:42:40;;;;;;;5.03;1.00;;;;;;;8.36;100.00;98868.00;5058076;28;20142;-74
2024/03/04 10:45:07;;;;;;;0.75;0.70;;;;;;;8.33;100.00;98857.72;5058156;28;20028;-74
2024/03/04 10:47:33;;;;;;;2.63;0.90;;;;;;;8.42;100.00;98879.81;5040558;28;20101;-73
2024/03/04 10:49:59;;;;;;;0.90;0.65;;;;;;;8.40;100.00;98884.53;5041273;28;20093;-74
2024/03/04 10:52:25;;;;;;;0.73;0.70;;;;;;;8.18;100.00;98865.13;5041268;28;20491;-74
2024/03/04 10:54:51;;;;;;;1.23;0.68;;;;;;;7.97;100.00;98866.19;5040896;28;20356;-74
2024/03/04 10:57:28;;;;;;;1.23;1.05;;;;;;;7.86;100.00;98872.97;5041183;28;20025;-74
2024/03/04 11:00:17;;;;;;;0.70;0.70;;;;;;;7.89;100.00;98865.34;5024652;28;20029;-74
2024/03/04 11:03:04;;;;;;;0.50;0.50;;;;;;;8.04;100.00;98867.81;5060235;28;20127;-74
2024/03/04 11:05:33;;;;;;;1.13;0.68;;;;;;;8.06;100.00;98846.22;5074146;28;20056;-74
2024/03/04 11:08:04;;;;;;;0.65;0.60;;;;;;;7.98;100.00;98875.84;5041241;28;20362;-74
2024/03/04 11:10:33;;;;;;;1.40;0.82;;;;;;;7.94;100.00;98846.00;5057551;28;20044;-74
2024/03/04 11:13:05;;;;;;;0.65;0.60;;;;;;;8.02;100.00;98855.66;5040818;28;20063;-74
2024/03/04 11:15:36;;;;;;;0.85;0.70;;;;;;;8.15;100.00;98847.66;5040304;28;20028;-74
2024/03/04 11:18:04;;;;;;;4.22;0.60;;;;;;;8.10;100.00;98858.97;5024697;28;20481;-74
2024/03/04 11:20:31;;;;;;;2.10;0.80;;;;;;;8.09;100.00;98854.63;5040577;28;20043;-73
2024/03/04 11:22:57;;;;;;;2.72;0.80;;;;;;;8.17;100.00;98844.75;5057075;28;20035;-74
2024/03/04 11:25:23;;;;;;;1.70;0.80;;;;;;;8.23;100.00;98836.75;5040875;28;20150;-74
2024/03/04 11:27:49;;;;;;;2.28;0.80;;;;;;;8.25;100.00;98845.34;5023882;28;20028;-74
2024/03/04 11:30:15;;;;;;;1.00;0.80;;;;;;;8.28;100.00;98844.97;5040510;28;20081;-74